createdAt,value
2019-03-30T00:04:54.985Z,99.90
2019-03-30T00:10:00.335Z,99.90
2019-03-30T00:15:05.656Z,99.90
2019-03-30T00:20:10.739Z,99.90
2019-03-30T00:25:15.940Z,99.90
2019-03-30T00:30:21.259Z,99.90
2019-03-30T00:35:26.549Z,99.90
2019-03-30T00:40:32.115Z,99.90
2019-03-30T00:45:38.257Z,99.90
2019-03-30T00:50:43.983Z,99.90
2019-03-30T00:55:49.035Z,99.90
2019-03-30T01:00:56.731Z,99.90
2019-03-30T01:06:02.056Z,99.90
2019-03-30T01:11:07.781Z,99.90
2019-03-30T01:16:12.985Z,99.90
2019-03-30T01:21:18.520Z,99.90
2019-03-30T01:26:23.910Z,99.90
2019-03-30T01:31:28.879Z,99.90
2019-03-30T01:36:34.599Z,99.90
2019-03-30T01:41:40.099Z,99.90
2019-03-30T01:46:47.044Z,99.90
2019-03-30T01:51:52.996Z,99.90
2019-03-30T01:56:58.226Z,99.90
2019-03-30T02:02:03.477Z,99.90
2019-03-30T02:07:08.912Z,99.90
2019-03-30T02:12:14.066Z,99.90
2019-03-30T02:17:20.306Z,99.90
2019-03-30T02:22:26.346Z,99.90
2019-03-30T02:27:31.881Z,99.90
2019-03-30T02:32:38.375Z,99.90
2019-03-30T02:37:43.740Z,99.90
2019-03-30T02:42:49.025Z,99.90
2019-03-30T02:47:54.400Z,99.90
2019-03-30T02:52:59.537Z,99.90
2019-03-30T02:58:05.301Z,99.90
2019-03-30T03:03:10.333Z,99.90
2019-03-30T03:08:16.055Z,99.90
2019-03-30T03:13:21.600Z,99.90
2019-03-30T03:18:26.710Z,99.90
2019-03-30T03:23:31.861Z,99.90
2019-03-30T03:28:40.131Z,99.90
2019-03-30T03:33:45.229Z,99.90
2019-03-30T03:38:50.843Z,99.90
2019-03-30T03:44:14.943Z,99.90
2019-03-30T03:49:20.571Z,99.90
2019-03-30T03:54:25.900Z,99.90
2019-03-30T03:59:32.841Z,99.90
2019-03-30T04:04:39.429Z,99.90
2019-03-30T04:09:48.005Z,99.90
2019-03-30T04:14:53.288Z,99.90
2019-03-30T04:19:58.600Z,99.90
2019-03-30T04:25:03.931Z,99.90
2019-03-30T04:30:09.180Z,99.90
2019-03-30T04:35:14.707Z,99.90
2019-03-30T04:40:19.884Z,99.90
2019-03-30T04:45:25.110Z,99.90
2019-03-30T04:50:31.174Z,99.90
2019-03-30T04:55:36.152Z,99.90
2019-03-30T05:00:41.700Z,99.90
2019-03-30T05:05:46.973Z,99.90
2019-03-30T05:10:52.272Z,99.90
2019-03-30T05:15:57.389Z,99.90
2019-03-30T05:21:02.848Z,99.90
2019-03-30T05:26:08.269Z,99.90
2019-03-30T05:31:19.499Z,99.90
2019-03-30T05:36:28.278Z,99.90
2019-03-30T05:41:33.528Z,99.90
2019-03-30T05:46:38.703Z,99.90
2019-03-30T05:51:44.181Z,99.90
2019-03-30T05:56:49.614Z,99.90
2019-03-30T06:01:55.238Z,99.90
2019-03-30T06:07:00.868Z,99.90
2019-03-30T06:12:06.768Z,99.90
2019-03-30T06:17:12.464Z,99.90
2019-03-30T06:22:17.545Z,99.90
2019-03-30T06:27:23.144Z,99.90
2019-03-30T06:32:29.043Z,99.90
2019-03-30T06:37:34.052Z,99.90
2019-03-30T06:42:39.079Z,99.90
2019-03-30T06:47:44.521Z,99.90
2019-03-30T06:52:57.457Z,99.90
2019-03-30T06:57:57.213Z,90.80
2019-03-30T07:03:05.204Z,77.10
2019-03-30T07:08:13.844Z,72.40
2019-03-30T07:13:19.236Z,69.60
2019-03-30T07:18:24.800Z,64.20
2019-03-30T07:23:29.767Z,63.40
2019-03-30T07:28:34.995Z,60.20
2019-03-30T07:33:40.192Z,58.30
2019-03-30T07:38:45.577Z,56.30
2019-03-30T07:43:50.824Z,56.30
2019-03-30T07:48:56.319Z,53.40
2019-03-30T07:54:08.227Z,53.70
2019-03-30T07:59:16.006Z,49.40
2019-03-30T08:04:21.253Z,49.20
2019-03-30T08:09:27.273Z,49.70
2019-03-30T08:14:32.458Z,51.20
2019-03-30T08:19:38.163Z,51.80
2019-03-30T08:24:45.589Z,50.80
2019-03-30T08:29:50.730Z,51.20
2019-03-30T08:34:59.218Z,52.20
2019-03-30T08:40:16.285Z,54.00
2019-03-30T08:45:21.843Z,53.90
2019-03-30T08:50:30.915Z,54.60
2019-03-30T08:55:36.818Z,53.40
2019-03-30T09:00:44.311Z,52.40
2019-03-30T09:05:50.364Z,53.90
2019-03-30T09:10:55.527Z,52.40
2019-03-30T09:16:00.915Z,53.70
2019-03-30T09:21:05.984Z,52.90
2019-03-30T09:26:11.400Z,52.40
2019-03-30T09:31:25.125Z,54.00
2019-03-30T09:36:31.273Z,51.50
2019-03-30T09:41:36.426Z,49.10
2019-03-30T09:46:41.564Z,50.90
2019-03-30T09:51:49.450Z,50.50
2019-03-30T09:56:59.846Z,48.40
2019-03-30T10:02:04.849Z,49.80
2019-03-30T10:07:10.276Z,52.80
2019-03-30T10:12:15.702Z,53.60
2019-03-30T10:17:21.487Z,54.00
2019-03-30T10:22:26.665Z,51.30
2019-03-30T10:27:31.676Z,57.10
2019-03-30T10:32:36.722Z,56.10
2019-03-30T10:37:42.105Z,55.00
2019-03-30T10:42:53.968Z,56.20
2019-03-30T10:47:59.152Z,57.90
2019-03-30T10:53:04.121Z,54.80
2019-03-30T10:58:09.439Z,50.00
2019-03-30T11:03:16.971Z,50.50
2019-03-30T11:08:22.744Z,51.80
2019-03-30T11:13:28.015Z,50.90
2019-03-30T11:18:33.970Z,49.10
2019-03-30T11:23:38.858Z,48.80
2019-03-30T11:28:44.385Z,45.70
2019-03-30T11:33:52.247Z,42.50
2019-03-30T11:38:57.270Z,43.40
2019-03-30T11:44:03.061Z,44.40
2019-03-30T11:49:08.384Z,44.30
2019-03-30T11:54:14.083Z,44.30
2019-03-30T11:59:19.028Z,44.60
2019-03-30T12:04:24.181Z,45.80
2019-03-30T12:09:29.367Z,45.60
2019-03-30T12:14:34.338Z,45.10
2019-03-30T12:19:40.129Z,45.20
2019-03-30T12:24:45.405Z,43.30
2019-03-30T12:29:50.896Z,41.20
2019-03-30T12:34:56.127Z,42.90
2019-03-30T12:40:03.388Z,42.90
2019-03-30T12:45:09.474Z,46.00
2019-03-30T12:50:15.234Z,41.50
2019-03-30T12:55:25.906Z,44.60
2019-03-30T13:00:34.655Z,45.40
2019-03-30T13:05:43.187Z,48.00
2019-03-30T13:10:49.150Z,45.20
2019-03-30T13:15:55.146Z,46.60
2019-03-30T13:21:00.596Z,46.20
2019-03-30T13:26:05.999Z,40.60
2019-03-30T13:31:11.244Z,42.90
2019-03-30T13:36:16.257Z,44.00
2019-03-30T13:41:21.467Z,41.50
2019-03-30T13:46:26.761Z,43.00
2019-03-30T13:51:32.230Z,39.90
2019-03-30T13:56:37.554Z,45.40
2019-03-30T14:01:43.249Z,38.70
2019-03-30T14:06:51.463Z,44.10
2019-03-30T14:11:56.655Z,43.10
2019-03-30T14:17:01.877Z,42.80
2019-03-30T14:22:07.333Z,45.20
2019-03-30T14:27:12.476Z,43.60
2019-03-30T14:32:17.432Z,42.70
2019-03-30T14:37:23.315Z,45.40
2019-03-30T14:42:28.459Z,41.60
2019-03-30T14:47:33.496Z,47.10
2019-03-30T14:52:38.734Z,45.00
2019-03-30T14:57:44.350Z,43.40
2019-03-30T15:02:49.760Z,47.10
2019-03-30T15:07:55.385Z,47.50
2019-03-30T15:13:03.199Z,46.70
2019-03-30T15:18:08.662Z,46.10
2019-03-30T15:23:13.683Z,47.10
2019-03-30T15:28:18.724Z,44.90
2019-03-30T15:33:24.172Z,45.00
2019-03-30T15:38:29.321Z,45.00
2019-03-30T15:43:38.398Z,44.70
2019-03-30T15:48:41.407Z,49.00
2019-03-30T15:53:46.790Z,48.40
2019-03-30T15:58:53.954Z,45.40
2019-03-30T16:04:02.280Z,45.90
2019-03-30T16:09:07.512Z,46.60
2019-03-30T16:14:13.108Z,45.70
2019-03-30T16:19:18.365Z,47.80
2019-03-30T16:24:25.247Z,46.70
2019-03-30T16:29:31.957Z,46.70
2019-03-30T16:34:37.726Z,47.10
2019-03-30T16:39:43.163Z,45.30
2019-03-30T16:44:48.628Z,47.10
2019-03-30T16:49:54.316Z,47.00
2019-03-30T16:55:04.934Z,49.70
2019-03-30T17:00:11.886Z,49.70
2019-03-30T17:05:17.211Z,49.00
2019-03-30T17:10:22.431Z,48.20
2019-03-30T17:15:27.887Z,48.90
2019-03-30T17:20:33.474Z,49.60
2019-03-30T17:25:38.966Z,51.60
2019-03-30T17:30:44.142Z,54.30
2019-03-30T17:35:49.173Z,55.50
2019-03-30T17:40:54.879Z,57.20
2019-03-30T17:46:01.570Z,58.00
2019-03-30T17:51:06.689Z,59.20
2019-03-30T17:56:12.281Z,59.80
2019-03-30T18:01:18.729Z,60.50
2019-03-30T18:06:23.932Z,61.70
2019-03-30T18:11:29.683Z,62.20
2019-03-30T18:16:35.022Z,63.30
2019-03-30T18:21:40.632Z,63.60
2019-03-30T18:26:46.519Z,63.80
2019-03-30T18:31:52.629Z,64.40
2019-03-30T18:36:59.587Z,64.70
2019-03-30T18:42:05.308Z,65.20
2019-03-30T18:47:12.140Z,65.80
2019-03-30T18:52:19.340Z,65.60
2019-03-30T18:57:24.904Z,67.80
2019-03-30T19:02:30.136Z,67.60
2019-03-30T19:07:35.288Z,69.80
2019-03-30T19:12:41.823Z,71.40
2019-03-30T19:17:47.281Z,72.80
2019-03-30T19:22:54.897Z,75.10
2019-03-30T19:28:01.987Z,78.10
2019-03-30T19:33:07.785Z,80.00
2019-03-30T19:38:12.901Z,83.70
2019-03-30T19:43:18.814Z,82.40
2019-03-30T19:48:24.550Z,82.80
2019-03-30T19:53:29.835Z,84.50
2019-03-30T19:58:35.682Z,87.80
2019-03-30T20:03:41.350Z,87.10
2019-03-30T20:08:49.314Z,87.60
2019-03-30T20:13:54.385Z,89.00
2019-03-30T20:19:11.602Z,90.20
2019-03-30T20:24:07.602Z,88.60
2019-03-30T20:29:24.730Z,88.90
2019-03-30T20:34:20.708Z,90.00
2019-03-30T20:39:28.481Z,93.90
2019-03-30T20:44:34.083Z,96.40
2019-03-30T20:49:40.097Z,98.30
2019-03-30T20:54:45.853Z,99.90
2019-03-30T20:59:50.938Z,99.90
2019-03-30T21:04:56.302Z,99.90
2019-03-30T21:10:01.563Z,99.90
2019-03-30T21:15:08.930Z,99.90
2019-03-30T21:20:14.803Z,99.90
2019-03-30T21:25:20.035Z,99.90
2019-03-30T21:30:25.288Z,99.90
2019-03-30T21:35:31.002Z,99.90
2019-03-30T21:40:36.753Z,99.90
2019-03-30T21:45:41.779Z,99.90
2019-03-30T21:50:47.753Z,99.90
2019-03-30T21:55:53.366Z,99.90
2019-03-30T22:01:00.024Z,99.90
2019-03-30T22:06:05.518Z,99.90
2019-03-30T22:11:11.864Z,99.90
2019-03-30T22:16:17.362Z,99.90
2019-03-30T22:21:22.734Z,99.90
2019-03-30T22:26:27.830Z,99.90
2019-03-30T22:31:33.113Z,99.90
2019-03-30T22:36:38.493Z,99.90
2019-03-30T22:41:43.876Z,99.90
2019-03-30T22:46:49.181Z,99.90
2019-03-30T22:51:55.848Z,99.90
2019-03-30T22:57:01.561Z,99.90
2019-03-30T23:02:07.283Z,99.90
2019-03-30T23:07:12.646Z,99.90
2019-03-30T23:12:17.873Z,99.90
2019-03-30T23:17:22.912Z,99.90
2019-03-30T23:22:28.324Z,99.90
2019-03-30T23:27:33.663Z,99.90
2019-03-30T23:32:39.885Z,99.90
2019-03-30T23:37:45.221Z,99.90
2019-03-30T23:42:52.923Z,99.90
2019-03-30T23:47:58.273Z,99.90
2019-03-30T23:53:03.474Z,99.90
2019-03-30T23:58:08.927Z,99.90
